createdAt,value
2019-03-31T18:20:17.929Z,2.90
2019-03-31T18:22:47.086Z,2.60
2019-03-31T18:25:16.385Z,2.50
2019-03-31T18:27:45.682Z,2.50
2019-03-31T18:30:18.362Z,2.50
2019-03-31T18:32:47.662Z,2.40
2019-03-31T18:35:18.504Z,2.50
2019-03-31T18:37:46.879Z,2.50
2019-03-31T18:40:15.964Z,2.40
2019-03-31T18:42:45.170Z,2.40
2019-03-31T18:45:14.474Z,2.30
2019-03-31T18:47:43.773Z,2.40
2019-03-31T18:50:18.192Z,2.40
2019-03-31T18:52:47.596Z,2.30
2019-03-31T18:55:33.486Z,2.30
2019-03-31T18:58:17.070Z,2.40
2019-03-31T19:00:53.900Z,2.30
2019-03-31T19:03:44.379Z,2.20
2019-03-31T19:06:33.051Z,2.20
2019-03-31T19:09:05.192Z,2.10
2019-03-31T19:11:39.331Z,2.20
2019-03-31T19:14:28.348Z,2.20
2019-03-31T19:17:15.415Z,2.20
2019-03-31T19:20:09.594Z,2.20
2019-03-31T19:22:40.380Z,2.10
2019-03-31T19:25:19.160Z,2.10
2019-03-31T19:27:52.826Z,2.00
2019-03-31T19:30:23.693Z,2.00
2019-03-31T19:33:09.684Z,1.90
2019-03-31T19:35:57.008Z,2.00
2019-03-31T19:38:28.768Z,2.00
2019-03-31T19:43:57.517Z,1.90
2019-03-31T19:47:01.861Z,1.90
2019-03-31T19:49:38.852Z,2.00
2019-03-31T19:52:26.821Z,2.00
2019-03-31T19:55:20.386Z,1.90
2019-03-31T19:58:04.356Z,1.80
2019-03-31T20:00:40.843Z,1.80
2019-03-31T20:03:23.905Z,1.80
2019-03-31T20:06:00.290Z,1.90
2019-03-31T20:08:31.127Z,1.90
2019-03-31T20:11:01.047Z,1.80
2019-03-31T20:13:31.885Z,1.90
2019-03-31T20:16:07.014Z,1.80
2019-03-31T20:18:43.687Z,1.80
2019-03-31T20:21:31.000Z,1.70
2019-03-31T20:24:05.942Z,1.70
2019-03-31T20:26:53.368Z,1.70
2019-03-31T20:29:27.071Z,1.70
2019-03-31T20:32:09.786Z,1.70
2019-03-31T20:34:40.622Z,1.60
2019-03-31T20:37:27.127Z,1.60
2019-03-31T20:40:19.727Z,1.60
2019-03-31T20:42:56.754Z,1.50
2019-03-31T20:45:25.748Z,1.50
2019-03-31T20:47:55.049Z,1.40
2019-03-31T20:50:24.350Z,1.40
2019-03-31T20:52:53.666Z,1.40
2019-03-31T20:55:22.950Z,1.40
2019-03-31T20:57:52.030Z,1.40
2019-03-31T21:00:21.245Z,1.40
2019-03-31T21:02:50.548Z,1.40
2019-03-31T21:05:19.845Z,1.30
2019-03-31T21:07:49.147Z,1.30
2019-03-31T21:10:22.136Z,1.20
2019-03-31T21:12:51.471Z,1.20
2019-03-31T21:15:22.885Z,1.20
2019-03-31T21:17:52.186Z,1.20
2019-03-31T21:20:23.026Z,1.20
2019-03-31T21:22:52.735Z,1.20
2019-03-31T21:25:23.466Z,1.10
2019-03-31T21:27:51.846Z,1.10
2019-03-31T21:30:21.763Z,1.10
2019-03-31T21:32:51.060Z,1.10
2019-03-31T21:35:20.443Z,1.00
2019-03-31T21:37:49.399Z,1.10
2019-03-31T21:43:34.546Z,1.10
2019-03-31T21:46:06.099Z,1.10
2019-03-31T21:48:35.404Z,1.00
2019-03-31T21:51:04.506Z,1.10
2019-03-31T21:53:33.702Z,1.00
2019-03-31T21:56:03.003Z,1.00
2019-03-31T21:58:33.225Z,1.00
2019-03-31T22:01:03.138Z,1.00
2019-03-31T22:03:32.434Z,1.00
2019-03-31T22:06:01.751Z,1.00
2019-03-31T22:08:31.037Z,1.00
2019-03-31T22:11:00.335Z,1.00
2019-03-31T22:13:31.171Z,1.00
2019-03-31T22:15:59.555Z,1.00
2019-03-31T22:18:28.856Z,1.00
2019-03-31T22:20:58.152Z,1.10
2019-03-31T22:23:27.453Z,1.10
2019-03-31T22:25:56.763Z,1.20
2019-03-31T22:28:26.061Z,1.10
2019-03-31T22:30:55.354Z,1.10
2019-03-31T22:33:24.962Z,1.10
2019-03-31T22:36:12.083Z,1.10
2019-03-31T22:38:41.380Z,1.00
2019-03-31T22:41:10.686Z,1.10
2019-03-31T22:43:39.674Z,1.10
2019-03-31T22:46:08.976Z,1.10
2019-03-31T22:48:38.274Z,1.10
2019-03-31T22:51:07.576Z,1.10
2019-03-31T22:53:36.877Z,1.10
2019-03-31T22:56:06.176Z,1.10
2019-03-31T22:58:35.477Z,1.20
2019-03-31T23:01:04.781Z,1.20
2019-03-31T23:03:34.078Z,1.20
2019-03-31T23:06:03.381Z,1.20
2019-03-31T23:08:32.686Z,1.30
2019-03-31T23:11:01.979Z,1.30
2019-03-31T23:13:31.280Z,1.30
2019-03-31T23:16:00.889Z,1.30
2019-03-31T23:18:30.189Z,1.30
2019-03-31T23:20:59.493Z,1.30
2019-03-31T23:23:28.791Z,1.30
2019-03-31T23:25:58.091Z,1.20
2019-03-31T23:28:27.392Z,1.20
2019-03-31T23:30:56.693Z,1.30
2019-03-31T23:33:25.994Z,1.30
2019-03-31T23:35:55.314Z,1.20
2019-03-31T23:38:24.594Z,1.20
2019-03-31T23:40:53.893Z,1.20
2019-03-31T23:43:23.195Z,1.20
2019-03-31T23:45:53.721Z,1.20
2019-03-31T23:48:23.021Z,1.30
2019-03-31T23:50:52.322Z,1.30
2019-03-31T23:53:21.623Z,1.30
2019-03-31T23:55:50.923Z,1.30
2019-03-31T23:58:20.223Z,1.20
